Time;durP1;ratioP1;P1;durP2;ratioP2;P2;SDS_P1;SDS_P2;PMS_P1;PMS_P2;Temp;Humidity;BMP_temperature;BMP_pressure;BME280_temperature;BME280_humidity;BME280_pressure;Samples;Min_cycle;Max_cycle;Signal;HPM_P1;HPM_P2
2023/12/23 00:01:28;;;;;;;;;;;;;;;-140.72;100.00;63267.63;5047720;28;19987;-72
2023/12/23 00:03:53;;;;;;;;;;;;;;;-140.72;100.00;63283.91;5056934;28;19971;-72
2023/12/23 00:06:18;;;;;;;;;;;;;;;-140.72;100.00;63324.59;5041802;28;19924;-72
2023/12/23 00:08:43;;;;;;;;;;;;;;;-140.72;100.00;63338.84;5057682;28;19925;-71
2023/12/23 00:11:09;;;;;;;;;;;;;;;-140.72;100.00;63351.03;5052366;28;19944;-72
2023/12/23 00:13:34;;;;;;;;;;;;;;;-140.72;100.00;63422.25;5054820;28;20263;-72
2023/12/23 00:16:00;;;;;;;;;;;;;;;-140.72;100.00;63473.13;5052846;28;20356;-71
2023/12/23 00:18:25;;;;;;;;;;;;;;;-140.72;100.00;63465.00;5039997;28;19920;-71
2023/12/23 00:20:50;;;;;;;;;;;;;;;-140.72;100.00;63521.97;5056460;28;19928;-72
2023/12/23 00:23:16;;;;;;;;;;;;;;;-140.72;100.00;63509.75;5064232;28;20350;-71
2023/12/23 00:25:41;;;;;;;;;;;;;;;-140.72;100.00;63485.34;5059041;28;20333;-72
2023/12/23 00:28:06;;;;;;;;;;;;;;;-140.72;100.00;63430.41;5067392;28;20294;-72
2023/12/23 00:30:32;;;;;;;;;;;;;;;-140.72;100.00;63420.22;5056499;28;19921;-72
2023/12/23 00:32:57;;;;;;;;;;;;;;;-140.72;100.00;63328.66;5056142;28;19921;-72
2023/12/23 00:35:22;;;;;;;;;;;;;;;-140.72;100.00;63273.72;5053810;28;20001;-72
2023/12/23 00:37:48;;;;;;;;;;;;;;;-140.72;100.00;63265.59;5044129;28;19921;-72
2023/12/23 00:40:13;;;;;;;;;;;;;;;-140.72;100.00;63188.28;5054585;28;19928;-71
2023/12/23 00:42:38;;;;;;;;;;;;;;;-140.72;100.00;63127.22;5053486;28;20024;-72
2023/12/23 00:45:04;;;;;;;;;;;;;;;-140.72;100.00;63054.00;5044699;28;19999;-72
2023/12/23 00:47:29;;;;;;;;;;;;;;;-140.72;100.00;62992.94;5068393;28;20340;-71
2023/12/23 00:49:54;;;;;;;;;;;;;;;-140.72;100.00;62956.34;5063813;28;20409;-71
2023/12/23 00:52:20;;;;;;;;;;;;;;;-140.72;100.00;62862.75;5054470;28;20399;-72
2023/12/23 00:54:45;;;;;;;;;;;;;;;-140.72;100.00;62840.38;5054884;28;19963;-71
2023/12/23 00:57:10;;;;;;;;;;;;;;;-140.72;100.00;62805.78;5042473;28;20015;-72
2023/12/23 00:59:35;;;;;;;;;;;;;;;-140.72;100.00;62748.81;5061405;28;20023;-72
2023/12/23 01:02:01;;;;;;;;;;;;;;;-140.72;100.00;62708.13;5057898;28;19988;-72
2023/12/23 01:04:26;;;;;;;;;;;;;;;-140.72;100.00;62622.69;5058120;28;19983;-72
2023/12/23 01:06:51;;;;;;;;;;;;;;;-140.72;100.00;62541.31;5057527;28;19920;-72
2023/12/23 01:09:16;;;;;;;;;;;;;;;-140.72;100.00;62518.94;5050402;28;19982;-72
2023/12/23 01:11:41;;;;;;;;;;;;;;;-140.72;100.00;62449.75;5053002;28;19925;-73
2023/12/23 01:14:07;;;;;;;;;;;;;;;-140.72;100.00;62398.91;5060137;28;19990;-71
2023/12/23 01:16:32;;;;;;;;;;;;;;;-140.72;100.00;62429.41;5063334;28;20404;-71
2023/12/23 01:18:57;;;;;;;;;;;;;;;-140.72;100.00;62425.34;5053248;28;19956;-71
2023/12/23 01:21:22;;;;;;;;;;;;;;;-140.72;100.00;62386.69;5059217;28;20275;-71
2023/12/23 01:23:48;;;;;;;;;;;;;;;-140.72;100.00;62411.13;5056416;28;19928;-71
2023/12/23 01:26:13;;;;;;;;;;;;;;;-140.72;100.00;62386.69;5039650;28;20406;-71
2023/12/23 01:28:38;;;;;;;;;;;;;;;-140.72;100.00;62350.09;5059480;28;19932;-71
2023/12/23 01:31:04;;;;;;;;;;;;;;;-140.72;100.00;62358.22;5056565;28;19954;-71
2023/12/23 01:33:30;;;;;;;;;;;;;;;-140.72;100.00;62370.44;5057451;28;20058;-71
2023/12/23 01:35:55;;;;;;;;;;;;;;;-140.72;100.00;62413.16;5060930;28;19990;-71
2023/12/23 01:38:21;;;;;;;;;;;;;;;-140.72;100.00;62449.75;5061008;28;19924;-71
2023/12/23 01:40:47;;;;;;;;;;;;;;;-140.72;100.00;62476.22;5058239;28;19967;-71
2023/12/23 01:43:12;;;;;;;;;;;;;;;-140.72;100.00;62541.31;5058129;28;19928;-71
2023/12/23 01:45:37;;;;;;;;;;;;;;;-140.72;100.00;62608.44;5041235;28;20289;-71
2023/12/23 01:48:03;;;;;;;;;;;;;;;-140.72;100.00;62683.72;5038522;28;20327;-71
2023/12/23 01:50:29;;;;;;;;;;;;;;;-140.72;100.00;62738.63;5068935;28;19935;-71
2023/12/23 01:52:55;;;;;;;;;;;;;;;-140.72;100.00;62748.81;5066325;28;20360;-71
2023/12/23 01:55:21;;;;;;;;;;;;;;;-140.72;100.00;62785.44;5061580;28;19966;-71
2023/12/23 01:57:46;;;;;;;;;;;;;;;-140.72;100.00;62828.16;5063040;28;20019;-71
2023/12/23 02:00:12;;;;;;;;;;;;;;;-140.72;100.00;62901.41;5063775;28;19921;-71
2023/12/23 02:02:38;;;;;;;;;;;;;;;-140.72;100.00;62940.06;5062296;28;19963;-71
2023/12/23 02:05:06;;;;;;;;;;;;;;;-140.72;100.00;62952.25;5064739;28;19963;-71
2023/12/23 02:07:32;;;;;;;;;;;;;;;-140.72;100.00;62938.03;5060945;28;20008;-71
2023/12/23 02:09:58;;;;;;;;;;;;;;;-140.72;100.00;62919.72;5054258;28;20385;-72
2023/12/23 02:12:43;;;;;;;;;;;;;;;-140.72;100.00;62903.44;5051047;28;19925;-72
2023/12/23 02:15:09;;;;;;;;;;;;;;;-140.72;100.00;62927.84;5044981;28;19920;-71
2023/12/23 02:17:34;;;;;;;;;;;;;;;-140.72;100.00;62911.56;5033503;28;19943;-71
2023/12/23 02:19:59;;;;;;;;;;;;;;;-140.72;100.00;62899.38;5048561;28;20354;-71
2023/12/23 02:22:25;;;;;;;;;;;;;;;-140.72;100.00;62994.97;5050521;28;19932;-71
2023/12/23 02:24:50;;;;;;;;;;;;;;;-140.72;100.00;62964.47;5058549;28;20243;-71
2023/12/23 02:27:19;;;;;;;;;;;;;;;-140.72;100.00;63066.19;5054882;28;19920;-70
2023/12/23 02:29:45;;;;;;;;;;;;;;;-140.72;100.00;63074.34;5038806;28;20208;-71
2023/12/23 02:32:11;;;;;;;;;;;;;;;-140.72;100.00;63041.78;5057483;28;20484;-71
2023/12/23 02:34:37;;;;;;;;;;;;;;;-140.72;100.00;63056.03;5053736;28;20022;-70
2023/12/23 02:37:02;;;;;;;;;;;;;;;-140.72;100.00;63033.66;5061283;28;20366;-71
2023/12/23 02:39:28;;;;;;;;;;;;;;;-140.72;100.00;62988.88;5052368;28;19991;-71
2023/12/23 02:41:53;;;;;;;;;;;;;;;-140.72;100.00;62962.44;5046131;28;19968;-72
2023/12/23 02:44:18;;;;;;;;;;;;;;;-140.72;100.00;62921.75;5042595;28;19924;-72
2023/12/23 02:46:43;;;;;;;;;;;;;;;-140.72;100.00;62797.63;5047103;28;19929;-72
2023/12/23 02:49:08;;;;;;;;;;;;;;;-140.72;100.00;62730.50;5032676;28;19951;-71
2023/12/23 02:51:34;;;;;;;;;;;;;;;-140.72;100.00;62638.97;5052541;28;19951;-72
2023/12/23 02:53:59;;;;;;;;;;;;;;;-140.72;100.00;62539.28;5060555;28;19932;-72
2023/12/23 02:56:24;;;;;;;;;;;;;;;-140.72;100.00;62437.56;5037381;28;19947;-72
2023/12/23 02:58:49;;;;;;;;;;;;;;;-140.72;100.00;62327.72;5057533;28;20015;-72
2023/12/23 03:01:14;;;;;;;;;;;;;;;-140.72;100.00;62274.81;5057792;28;19924;-72
2023/12/23 03:03:40;;;;;;;;;;;;;;;-140.72;100.00;62134.47;5054392;28;19936;-72
2023/12/23 03:06:05;;;;;;;;;;;;;;;-140.72;100.00;62026.66;5051209;28;20394;-72
2023/12/23 03:08:30;;;;;;;;;;;;;;;-140.72;100.00;61935.13;5053071;28;19921;-72
2023/12/23 03:10:55;;;;;;;;;;;;;;;-140.72;100.00;61780.53;5055664;28;19948;-72
2023/12/23 03:13:21;;;;;;;;;;;;;;;-140.72;100.00;61711.41;5058679;28;20085;-72
2023/12/23 03:15:46;;;;;;;;;;;;;;;-140.72;100.00;61597.50;5056348;28;20020;-72
2023/12/23 03:18:12;;;;;;;;;;;;;;;-140.72;100.00;61530.38;5051712;28;20058;-72
2023/12/23 03:20:37;;;;;;;;;;;;;;;-140.72;100.00;61386.00;5048902;28;19921;-72
2023/12/23 03:23:02;;;;;;;;;;;;;;;-140.72;100.00;61351.41;5040876;28;20063;-72
2023/12/23 03:25:29;;;;;;;;;;;;;;;-140.72;100.00;61239.56;5060758;28;20330;-72
2023/12/23 03:27:54;;;;;;;;;;;;;;;-140.72;100.00;61207.03;5053294;28;20007;-72
2023/12/23 03:30:19;;;;;;;;;;;;;;;-140.72;100.00;61137.88;5056857;28;20434;-72
2023/12/23 03:32:44;;;;;;;;;;;;;;;-140.72;100.00;61066.69;5059466;28;20070;-72
2023/12/23 03:35:09;;;;;;;;;;;;;;;-140.72;100.00;61005.69;5053032;28;19968;-72
2023/12/23 03:37:35;;;;;;;;;;;;;;;-140.72;100.00;61003.66;5051054;28;20014;-72
2023/12/23 03:40:00;;;;;;;;;;;;;;;-140.72;100.00;60979.25;5055539;28;19928;-72
2023/12/23 03:42:25;;;;;;;;;;;;;;;-140.72;100.00;60936.56;5063398;28;19921;-72
2023/12/23 03:44:50;;;;;;;;;;;;;;;-140.72;100.00;60871.50;5036645;28;20402;-72
2023/12/23 03:47:16;;;;;;;;;;;;;;;-140.72;100.00;60784.06;5034724;28;19927;-72
2023/12/23 03:49:42;;;;;;;;;;;;;;;-140.72;100.00;60784.06;5058583;28;20277;-72
2023/12/23 03:52:07;;;;;;;;;;;;;;;-140.72;100.00;60727.13;5056233;28;19920;-72
2023/12/23 03:54:32;;;;;;;;;;;;;;;-140.72;100.00;60706.78;5048907;28;19929;-71
2023/12/23 03:56:57;;;;;;;;;;;;;;;-140.72;100.00;60678.31;5056354;28;19920;-71
2023/12/23 03:59:23;;;;;;;;;;;;;;;-140.72;100.00;60688.47;5054989;28;19927;-71
2023/12/23 04:01:48;;;;;;;;;;;;;;;-140.72;100.00;60641.72;5058575;28;19925;-71
2023/12/23 04:04:13;;;;;;;;;;;;;;;-140.72;100.00;60578.69;5056756;28;20008;-71
2023/12/23 04:06:38;;;;;;;;;;;;;;;-140.72;100.00;60533.94;5056348;28;20015;-72
2023/12/23 04:09:03;;;;;;;;;;;;;;;-140.72;100.00;60533.94;5055900;28;20046;-71
2023/12/23 04:11:29;;;;;;;;;;;;;;;-140.72;100.00;60483.13;5060324;28;20305;-71
2023/12/23 04:13:54;;;;;;;;;;;;;;;-140.72;100.00;60430.25;5055931;28;19920;-71
2023/12/23 04:16:19;;;;;;;;;;;;;;;-140.72;100.00;60430.25;5048727;28;19928;-71
2023/12/23 04:18:44;;;;;;;;;;;;;;;-140.72;100.00;60342.81;5040802;28;19948;-72
2023/12/23 04:21:10;;;;;;;;;;;;;;;-140.72;100.00;60377.38;5055191;28;19921;-72
2023/12/23 04:23:36;;;;;;;;;;;;;;;-140.72;100.00;60361.13;5052515;28;20351;-72
2023/12/23 04:26:01;;;;;;;;;;;;;;;-140.72;100.00;60283.88;5050938;28;19928;-72
2023/12/23 04:28:26;;;;;;;;;;;;;;;-140.72;100.00;60261.50;5041763;28;19921;-72
2023/12/23 04:30:56;;;;;;;;;;;;;;;-140.72;100.00;60279.78;5051450;28;20302;-72
2023/12/23 04:33:21;;;;;;;;;;;;;;;-140.72;100.00;60259.47;5051038;28;20470;-72
2023/12/23 04:35:47;;;;;;;;;;;;;;;-140.72;100.00;60222.88;5057485;28;19956;-72
2023/12/23 04:38:14;;;;;;;;;;;;;;;-140.72;100.00;60198.47;5052955;28;19966;-72
2023/12/23 04:40:39;;;;;;;;;;;;;;;-140.72;100.00;60206.59;5060284;28;19936;-72
2023/12/23 04:43:04;;;;;;;;;;;;;;;-140.72;100.00;60174.06;5045786;28;19921;-72
2023/12/23 04:45:30;;;;;;;;;;;;;;;-140.72;100.00;60161.88;5046195;28;20388;-72
2023/12/23 04:47:55;;;;;;;;;;;;;;;-140.72;100.00;60125.28;5035628;28;19932;-72
2023/12/23 04:50:20;;;;;;;;;;;;;;;-140.72;100.00;60121.22;5053062;28;19920;-72
2023/12/23 04:52:46;;;;;;;;;;;;;;;-140.72;100.00;60104.94;5056590;28;19970;-72
2023/12/23 04:55:11;;;;;;;;;;;;;;;-140.72;100.00;60039.88;5056416;28;19929;-72
2023/12/23 04:57:36;;;;;;;;;;;;;;;-140.72;100.00;60023.63;5067739;28;20353;-72
2023/12/23 05:00:05;;;;;;;;;;;;;;;-140.72;100.00;60019.56;5060186;28;19966;-71
2023/12/23 05:02:31;;;;;;;;;;;;;;;-140.72;100.00;60001.25;5039488;28;19961;-72
2023/12/23 05:04:57;;;;;;;;;;;;;;;-140.72;100.00;60041.91;5059600;28;20378;-72
2023/12/23 05:07:23;;;;;;;;;;;;;;;-140.72;100.00;59991.09;5052000;28;19921;-72
2023/12/23 05:09:48;;;;;;;;;;;;;;;-140.72;100.00;59987.03;5055940;28;19939;-72
2023/12/23 05:12:13;;;;;;;;;;;;;;;-140.72;100.00;59942.31;5048438;28;20294;-72
2023/12/23 05:14:39;;;;;;;;;;;;;;;-140.72;100.00;59958.56;5057950;28;20470;-72
2023/12/23 05:17:04;;;;;;;;;;;;;;;-140.72;100.00;59954.50;5064864;28;19970;-72
2023/12/23 05:19:29;;;;;;;;;;;;;;;-140.72;100.00;59913.84;5058432;28;19921;-72
2023/12/23 05:21:54;;;;;;;;;;;;;;;-140.72;100.00;59909.78;5051506;28;19921;-72
2023/12/23 05:24:20;;;;;;;;;;;;;;;-140.72;100.00;59863.03;5054581;28;19979;-72
2023/12/23 05:26:45;;;;;;;;;;;;;;;-140.72;100.00;59852.84;5048814;28;20393;-72
2023/12/23 05:29:10;;;;;;;;;;;;;;;-140.72;100.00;59818.28;5060616;28;20384;-72
2023/12/23 05:31:35;;;;;;;;;;;;;;;-140.72;100.00;59808.13;5054146;28;19920;-71
2023/12/23 05:34:00;;;;;;;;;;;;;;;-140.72;100.00;59800.00;5052003;28;19984;-74
2023/12/23 05:36:26;;;;;;;;;;;;;;;-140.72;100.00;59763.41;5055856;28;20062;-72
2023/12/23 05:38:51;;;;;;;;;;;;;;;-140.72;100.00;59747.16;5054331;28;19924;-72
2023/12/23 05:41:16;;;;;;;;;;;;;;;-140.72;100.00;59694.28;5057617;28;19973;-75
2023/12/23 05:43:41;;;;;;;;;;;;;;;-140.72;100.00;59732.91;5041007;28;19932;-72
2023/12/23 05:46:07;;;;;;;;;;;;;;;-140.72;100.00;59696.31;5062458;28;19921;-72
2023/12/23 05:48:32;;;;;;;;;;;;;;;-140.72;100.00;59690.22;5040993;28;20012;-72
2023/12/23 05:50:57;;;;;;;;;;;;;;;-140.72;100.00;59694.28;5058772;28;19921;-71
2023/12/23 05:53:23;;;;;;;;;;;;;;;-140.72;100.00;59710.56;5060413;28;19928;-74
2023/12/23 05:55:48;;;;;;;;;;;;;;;-140.72;100.00;59702.41;5057499;28;19927;-73
2023/12/23 05:58:13;;;;;;;;;;;;;;;-140.72;100.00;59665.81;5058420;28;19921;-75
2023/12/23 06:00:38;;;;;;;;;;;;;;;-140.72;100.00;59682.09;5054810;28;20413;-73
2023/12/23 06:03:04;;;;;;;;;;;;;;;-140.72;100.00;59615.00;5053294;28;20286;-72
2023/12/23 06:05:29;;;;;;;;;;;;;;;-140.72;100.00;59625.16;5054046;28;20359;-72
2023/12/23 06:07:55;;;;;;;;;;;;;;;-140.72;100.00;59625.16;5056668;28;19940;-74
2023/12/23 06:10:20;;;;;;;;;;;;;;;-140.72;100.00;59588.59;5058022;28;19929;-74
2023/12/23 06:12:46;;;;;;;;;;;;;;;-140.72;100.00;59600.78;5052252;28;20022;-74
2023/12/23 06:15:11;;;;;;;;;;;;;;;-140.72;100.00;59552.00;5046681;28;19929;-72
2023/12/23 06:17:36;;;;;;;;;;;;;;;-140.72;100.00;59586.56;5061945;28;19920;-72
2023/12/23 06:20:04;;;;;;;;;;;;;;;-140.72;100.00;59552.00;5065627;28;19920;-72
2023/12/23 06:22:29;;;;;;;;;;;;;;;-140.72;100.00;59552.00;5041629;28;19928;-72
2023/12/23 06:24:54;;;;;;;;;;;;;;;-140.72;100.00;59566.22;5062769;28;19974;-72
2023/12/23 06:27:19;;;;;;;;;;;;;;;-140.72;100.00;59556.06;5059156;28;20305;-74
2023/12/23 06:29:45;;;;;;;;;;;;;;;-140.72;100.00;59580.44;5056675;28;20559;-71
2023/12/23 06:32:10;;;;;;;;;;;;;;;-140.72;100.00;59552.00;5055142;28;19963;-71
2023/12/23 06:34:35;;;;;;;;;;;;;;;-140.72;100.00;59541.81;5056149;28;19921;-72
2023/12/23 06:37:00;;;;;;;;;;;;;;;-140.72;100.00;59633.31;5044488;28;19925;-72
2023/12/23 06:39:26;;;;;;;;;;;;;;;-140.72;100.00;59600.78;5062128;28;19929;-71
2023/12/23 06:41:51;;;;;;;;;;;;;;;-140.72;100.00;59600.78;5072714;28;19983;-73
2023/12/23 06:44:16;;;;;;;;;;;;;;;-140.72;100.00;59651.59;5068096;28;19928;-73
2023/12/23 06:46:42;;;;;;;;;;;;;;;-140.72;100.00;59643.47;5056413;28;19924;-74
2023/12/23 06:49:07;;;;;;;;;;;;;;;-140.72;100.00;59637.38;5062956;28;19936;-74
2023/12/23 06:51:32;;;;;;;;;;;;;;;-140.72;100.00;59637.38;5042795;28;19917;-73
2023/12/23 06:53:57;;;;;;;;;;;;;;;-140.72;100.00;59653.63;5056752;28;20337;-74
2023/12/23 06:56:23;;;;;;;;;;;;;;;-140.72;100.00;59659.72;5051363;28;20020;-72
2023/12/23 06:58:48;;;;;;;;;;;;;;;-140.72;100.00;59667.88;5058374;28;19920;-71
2023/12/23 07:01:14;;;;;;;;;;;;;;;-140.72;100.00;59631.28;5029146;28;19927;-71
2023/12/23 07:03:40;;;;;;;;;;;;;;;-140.72;100.00;59625.16;5052438;28;20313;-71
2023/12/23 07:06:05;;;;;;;;;;;;;;;-140.72;100.00;59617.03;5066028;28;19921;-71
2023/12/23 07:08:30;;;;;;;;;;;;;;;-140.72;100.00;59657.69;5059408;28;19940;-73
2023/12/23 07:10:56;;;;;;;;;;;;;;;-140.72;100.00;59619.06;5056091;28;19998;-73
2023/12/23 07:13:21;;;;;;;;;;;;;;;-140.72;100.00;59592.66;5051924;28;20365;-72
2023/12/23 07:15:46;;;;;;;;;;;;;;;-140.72;100.00;59584.50;5035862;28;19928;-73
2023/12/23 07:18:11;;;;;;;;;;;;;;;-140.72;100.00;59574.34;5056897;28;20014;-75
2023/12/23 07:20:39;;;;;;;;;;;;;;;-140.72;100.00;59574.34;5060115;28;20011;-73
2023/12/23 07:23:04;;;;;;;;;;;;;;;-140.72;100.00;59499.13;5054051;28;19968;-73
2023/12/23 07:25:29;;;;;;;;;;;;;;;-140.72;100.00;59472.72;5054337;28;20345;-73
2023/12/23 07:27:55;;;;;;;;;;;;;;;-140.72;100.00;59379.22;5052113;28;20007;-73
2023/12/23 07:30:20;;;;;;;;;;;;;;;-140.72;100.00;59401.56;5056604;28;19924;-73
2023/12/23 07:32:45;;;;;;;;;;;;;;;-140.72;100.00;59344.66;5055449;28;19947;-73
2023/12/23 07:35:10;;;;;;;;;;;;;;;-140.72;100.00;59310.09;5053338;28;19920;-73
2023/12/23 07:37:36;;;;;;;;;;;;;;;-140.72;100.00;59283.66;5049955;28;19947;-73
2023/12/23 07:40:04;;;;;;;;;;;;;;;-140.72;100.00;59238.97;5058134;28;20330;-74
2023/12/23 07:42:29;;;;;;;;;;;;;;;-140.72;100.00;59208.47;5059679;28;20005;-73
2023/12/23 07:44:55;;;;;;;;;;;;;;;-140.72;100.00;59141.38;5059061;28;20373;-73
2023/12/23 07:47:20;;;;;;;;;;;;;;;-140.72;100.00;59080.41;5054220;28;20298;-73
2023/12/23 07:49:45;;;;;;;;;;;;;;;-140.72;100.00;59076.34;5057023;28;19925;-73
2023/12/23 07:52:10;;;;;;;;;;;;;;;-140.72;100.00;59098.72;5026611;28;19921;-73
2023/12/23 07:54:36;;;;;;;;;;;;;;;-140.72;100.00;59056.03;5054507;28;19921;-74
2023/12/23 07:57:01;;;;;;;;;;;;;;;-140.72;100.00;59072.28;5049504;28;19967;-72
2023/12/23 07:59:26;;;;;;;;;;;;;;;-140.72;100.00;59080.41;5047314;28;20011;-72
2023/12/23 08:01:51;;;;;;;;;;;;;;;-140.72;100.00;59108.88;5049948;28;19921;-74
2023/12/23 08:04:17;;;;;;;;;;;;;;;-140.72;100.00;59092.59;5062656;28;19932;-71
2023/12/23 08:06:42;;;;;;;;;;;;;;;-140.72;100.00;59141.38;5048418;28;19928;-73
2023/12/23 08:09:07;;;;;;;;;;;;;;;-140.72;100.00;59125.13;5040332;28;19947;-73
2023/12/23 08:11:34;;;;;;;;;;;;;;;-140.72;100.00;59129.19;5053269;28;20390;-75
2023/12/23 08:14:00;;;;;;;;;;;;;;;-140.72;100.00;59137.31;5055050;28;20402;-73
2023/12/23 08:16:25;;;;;;;;;;;;;;;-140.72;100.00;59224.72;5059344;28;20070;-74
2023/12/23 08:18:50;;;;;;;;;;;;;;;-140.72;100.00;59196.28;5053589;28;19964;-73
2023/12/23 08:21:15;;;;;;;;;;;;;;;-140.72;100.00;59236.91;5056831;28;19922;-72
2023/12/23 08:23:41;;;;;;;;;;;;;;;-140.72;100.00;59241.00;5067014;28;19921;-74
2023/12/23 08:26:08;;;;;;;;;;;;;;;-140.72;100.00;59332.47;5053799;28;19924;-72
2023/12/23 08:28:33;;;;;;;;;;;;;;;-140.72;100.00;59411.72;5050840;28;20467;-72
2023/12/23 08:30:58;;;;;;;;;;;;;;;-140.72;100.00;59509.31;5036744;28;19925;-71
2023/12/23 08:33:23;;;;;;;;;;;;;;;-140.72;100.00;59625.16;5046568;28;19924;-72
2023/12/23 08:35:49;;;;;;;;;;;;;;;-140.72;100.00;59730.88;5048918;28;20011;-72
2023/12/23 08:38:14;;;;;;;;;;;;;;;-140.72;100.00;59726.81;5034997;28;20269;-72
2023/12/23 08:40:39;;;;;;;;;;;;;;;-140.72;100.00;59767.47;5047699;28;20144;-71
2023/12/23 08:43:04;;;;;;;;;;;;;;;-140.72;100.00;59820.31;5026636;28;19936;-71
2023/12/23 08:45:30;;;;;;;;;;;;;;;-140.72;100.00;59797.97;5053314;28;19935;-72
2023/12/23 08:47:55;;;;;;;;;;;;;;;-140.72;100.00;59767.47;5043920;28;19917;-72
2023/12/23 08:50:22;;;;;;;;;;;;;;;-140.72;100.00;59767.47;5046424;28;20333;-71
2023/12/23 08:52:47;;;;;;;;;;;;;;;-140.72;100.00;59730.88;5059978;28;20383;-72
2023/12/23 08:55:13;;;;;;;;;;;;;;;-140.72;100.00;59730.88;5046711;28;19928;-72
2023/12/23 08:57:38;;;;;;;;;;;;;;;-140.72;100.00;59694.28;5048417;28;20371;-71
2023/12/23 09:00:05;;;;;;;;;;;;;;;-140.72;100.00;59641.44;5051102;28;19994;-71
2023/12/23 09:02:30;;;;;;;;;;;;;;;-140.72;100.00;59649.56;5055706;28;19944;-71
2023/12/23 09:04:55;;;;;;;;;;;;;;;-140.72;100.00;59560.13;5047055;28;19968;-75
2023/12/23 09:07:20;;;;;;;;;;;;;;;-140.72;100.00;59482.88;5031136;28;19932;-71
2023/12/23 09:09:46;;;;;;;;;;;;;;;-140.72;100.00;59511.34;5050141;28;19974;-71
2023/12/23 09:12:11;;;;;;;;;;;;;;;-140.72;100.00;59466.63;5051798;28;19984;-72
2023/12/23 09:14:36;;;;;;;;;;;;;;;-140.72;100.00;59436.13;5053906;28;19947;-71
2023/12/23 09:17:03;;;;;;;;;;;;;;;-140.72;100.00;59421.91;5053313;28;19971;-73
2023/12/23 09:19:28;;;;;;;;;;;;;;;-140.72;100.00;59346.69;5031784;28;19922;-72
2023/12/23 09:21:55;;;;;;;;;;;;;;;-140.72;100.00;59301.97;5056021;28;19924;-72
2023/12/23 09:24:20;;;;;;;;;;;;;;;-140.72;100.00;59334.50;5047496;28;19917;-72
2023/12/23 09:26:45;;;;;;;;;;;;;;;-140.72;100.00;59352.78;5036581;28;19938;-72
2023/12/23 09:29:11;;;;;;;;;;;;;;;-140.72;100.00;59304.00;5053954;28;19964;-72
2023/12/23 09:31:36;;;;;;;;;;;;;;;-140.72;100.00;59301.97;5037754;28;19971;-71
2023/12/23 09:34:01;;;;;;;;;;;;;;;-140.72;100.00;59291.81;5044608;28;19917;-72
2023/12/23 09:36:27;;;;;;;;;;;;;;;-140.72;100.00;59255.22;5039062;28;19917;-72
2023/12/23 09:38:52;;;;;;;;;;;;;;;-140.72;100.00;59255.22;5038717;28;19990;-71
2023/12/23 09:41:17;;;;;;;;;;;;;;;-140.72;100.00;59236.91;5032702;28;19972;-71
2023/12/23 09:43:43;;;;;;;;;;;;;;;-140.72;100.00;59241.00;5031679;28;19925;-71
2023/12/23 09:46:08;;;;;;;;;;;;;;;-140.72;100.00;59165.78;5053495;28;19923;-71
2023/12/23 09:48:34;;;;;;;;;;;;;;;-140.72;100.00;59186.09;5053613;28;19923;-72
2023/12/23 09:50:59;;;;;;;;;;;;;;;-140.72;100.00;59121.06;5047786;28;20023;-72
2023/12/23 09:53:26;;;;;;;;;;;;;;;-140.72;100.00;59072.28;5029969;28;20031;-74
2023/12/23 09:55:51;;;;;;;;;;;;;;;-140.72;100.00;59076.34;5019239;28;19917;-72
2023/12/23 09:58:16;;;;;;;;;;;;;;;-140.72;100.00;58974.72;5037355;28;19987;-72
2023/12/23 10:00:44;;;;;;;;;;;;;;;-140.72;100.00;58919.84;5034204;28;19917;-72
2023/12/23 10:03:09;;;;;;;;;;;;;;;-140.72;100.00;58934.06;5052859;28;19927;-72
2023/12/23 10:05:41;;;;;;;;;;;;;;;-140.72;100.00;58879.19;5023172;28;19917;-72
2023/12/23 10:08:06;;;;;;;;;;;;;;;-140.72;100.00;58858.88;5056076;28;20371;-72
2023/12/23 10:10:32;;;;;;;;;;;;;;;-140.72;100.00;58824.31;5047134;28;19963;-71
2023/12/23 10:12:57;;;;;;;;;;;;;;;-140.72;100.00;58751.16;5045017;28;20008;-71
2023/12/23 10:15:22;;;;;;;;;;;;;;;-140.72;100.00;58765.38;5051631;28;20003;-71
2023/12/23 10:17:47;;;;;;;;;;;;;;;-140.72;100.00;58702.38;5044006;28;20290;-74
2023/12/23 10:20:13;;;;;;;;;;;;;;;-140.72;100.00;58631.25;5048292;28;19924;-74
2023/12/23 10:22:42;;;;;;;;;;;;;;;-140.72;100.00;58623.13;5052322;28;19917;-72
2023/12/23 10:25:07;;;;;;;;;;;;;;;-140.72;100.00;58556.06;5060356;28;20010;-71
2023/12/23 10:27:33;;;;;;;;;;;;;;;-140.72;100.00;58549.94;5062353;28;20330;-71
2023/12/23 10:29:59;;;;;;;;;;;;;;;-140.72;100.00;58468.66;5055059;28;19921;-73
2023/12/23 10:32:26;;;;;;;;;;;;;;;-140.72;100.00;58409.72;5052928;28;20016;-74
2023/12/23 10:34:54;;;;;;;;;;;;;;;-140.72;100.00;58338.59;5055194;28;19963;-72
2023/12/23 10:37:22;;;;;;;;;;;;;;;-140.72;100.00;58287.81;5055733;28;19947;-71
2023/12/23 10:39:50;;;;;;;;;;;;;;;-140.72;100.00;58271.53;5065932;28;19947;-73
2023/12/23 10:42:20;;;;;;;;;;;;;;;-140.72;100.00;58237.00;5041137;28;20016;-72
2023/12/23 10:44:46;;;;;;;;;;;;;;;-140.72;100.00;58133.38;5021148;28;19924;-72
2023/12/23 10:47:12;;;;;;;;;;;;;;;-140.72;100.00;58176.03;5035983;28;19928;-72
2023/12/23 10:49:38;;;;;;;;;;;;;;;-140.72;100.00;58102.88;5036584;28;19917;-71
2023/12/23 10:52:04;;;;;;;;;;;;;;;-140.72;100.00;58123.19;5028705;28;19944;-71
2023/12/23 10:54:31;;;;;;;;;;;;;;;-140.72;100.00;58094.75;5022508;28;20393;-70
2023/12/23 10:56:57;;;;;;;;;;;;;;;-140.72;100.00;58178.06;5027394;28;19925;-71
2023/12/23 10:59:23;;;;;;;;;;;;;;;-140.72;100.00;58198.38;5031719;28;20387;-71
2023/12/23 11:01:48;;;;;;;;;;;;;;;-140.72;100.00;58212.63;5014787;28;20004;-71
2023/12/23 11:04:14;;;;;;;;;;;;;;;-140.72;100.00;58169.94;5012980;28;19921;-71
2023/12/23 11:06:41;;;;;;;;;;;;;;;-140.72;100.00;58139.47;5021190;28;20276;-71
2023/12/23 11:09:08;;;;;;;;;;;;;;;-140.72;100.00;58098.81;5023759;28;19929;-71
2023/12/23 11:11:34;;;;;;;;;;;;;;;-140.72;100.00;58104.91;5022283;28;20009;-71
2023/12/23 11:13:59;;;;;;;;;;;;;;;-140.72;100.00;58035.81;5017182;28;20331;-71
2023/12/23 11:17:02;;;;;;;;;;;;;;;-140.72;100.00;58080.53;5018541;28;19995;-72
2023/12/23 11:19:27;;;;;;;;;;;;;;;-140.72;100.00;58155.72;5016591;28;19918;-74
2023/12/23 11:22:12;;;;;;;;;;;;;;;-140.72;100.00;58125.22;5018659;28;19918;-71
2023/12/23 11:24:38;;;;;;;;;;;;;;;-140.72;100.00;58104.91;5022552;28;19921;-71
2023/12/23 11:27:05;;;;;;;;;;;;;;;-140.72;100.00;58121.16;5019645;28;19948;-71
2023/12/23 11:29:30;;;;;;;;;;;;;;;-140.72;100.00;58143.53;5021327;28;19920;-72
2023/12/23 11:32:08;;;;;;;;;;;;;;;-140.72;100.00;58078.50;5019835;28;19983;-72
2023/12/23 11:34:36;;;;;;;;;;;;;;;-140.72;100.00;58068.34;5026974;28;19972;-72
2023/12/23 11:37:02;;;;;;;;;;;;;;;-140.72;100.00;58039.88;5025498;28;19991;-71
2023/12/23 11:39:30;;;;;;;;;;;;;;;-140.72;100.00;58035.81;5026251;28;19956;-71
2023/12/23 11:41:55;;;;;;;;;;;;;;;-140.72;100.00;58035.81;5023111;28;20371;-72
2023/12/23 11:44:23;;;;;;;;;;;;;;;-140.72;100.00;58062.25;5045777;28;19967;-73
2023/12/23 11:46:48;;;;;;;;;;;;;;;-140.72;100.00;58068.34;5040269;28;20012;-72
2023/12/23 11:49:13;;;;;;;;;;;;;;;-140.72;100.00;58023.63;5042686;28;20366;-71
2023/12/23 11:51:39;;;;;;;;;;;;;;;-140.72;100.00;58098.81;5043631;28;20644;-72
2023/12/23 11:54:04;;;;;;;;;;;;;;;-140.72;100.00;58119.13;5039453;28;19923;-72
2023/12/23 11:56:30;;;;;;;;;;;;;;;-140.72;100.00;58178.06;5056444;28;19921;-72
2023/12/23 11:58:55;;;;;;;;;;;;;;;-140.72;100.00;58182.13;5030020;28;20221;-71
2023/12/23 12:01:20;;;;;;;;;;;;;;;-140.72;100.00;58202.44;5040112;28;19929;-71
2023/12/23 12:03:46;;;;;;;;;;;;;;;-140.72;100.00;58265.44;5041535;28;19931;-71
2023/12/23 12:06:12;;;;;;;;;;;;;;;-140.72;100.00;58312.19;5044371;28;19925;-71
2023/12/23 12:08:37;;;;;;;;;;;;;;;-140.72;100.00;58330.47;5044402;28;19928;-71
2023/12/23 12:11:03;;;;;;;;;;;;;;;-140.72;100.00;58269.50;5039995;28;19949;-71